Terminal Aerodrome Forecast
Issued by NWS St Louis, MO

Home | Current Version | Previous Version | Text Only | Print | Product List | Glossary On
Versions: 1 2 3 4 5 6 7 8 9 10 11 12 13 14 15 16 17 18 19 20 21 22 23 24 25
000
FTUS43 KLSX 231122
TAFSTL
TAF
KSTL 231122Z 2312/2418 13008KT P6SM VCSH OVC060
      TEMPO 2312/2313 6SM -TSRA OVC040CB
     FM231700 13008KT P6SM OVC040
     FM240300 16014KT P6SM SCT250 WS014/20040KT
     FM241400 18010G18KT P6SM BKN080=

USA.gov is the U.S. government's official web portal to all federal, state and local government web resources and services.